Time;durP1;ratioP1;P1;durP2;ratioP2;P2;SDS_P1;SDS_P2;PMS_P1;PMS_P2;Temp;Humidity;BMP_temperature;BMP_pressure;BME280_temperature;BME280_humidity;BME280_pressure;Samples;Min_cycle;Max_cycle;Signal;HPM_P1;HPM_P2
2023/04/03 00:01:50;;;;;;;9.68;6.17;;;;;;;7.24;97.31;99585.48;1721551;83;21019;-68
2023/04/03 00:04:20;;;;;;;8.40;5.40;;;;;;;7.24;97.43;99593.14;1721585;82;20986;-69
2023/04/03 00:06:51;;;;;;;9.83;5.95;;;;;;;7.25;97.52;99589.90;1721372;83;20987;-69
2023/04/03 00:09:20;;;;;;;8.00;5.75;;;;;;;7.25;97.56;99594.83;1721815;83;21025;-69
2023/04/03 00:11:50;;;;;;;10.13;5.47;;;;;;;7.20;97.58;99590.48;1721531;83;21493;-68
2023/04/03 00:14:19;;;;;;;7.62;5.12;;;;;;;7.17;97.69;99592.23;1721986;83;21079;-68
2023/04/03 00:16:49;;;;;;;13.10;5.37;;;;;;;7.14;97.74;99590.39;1720863;82;21017;-68
2023/04/03 00:19:20;;;;;;;8.00;4.58;;;;;;;7.12;97.94;99593.31;1716954;83;21050;-69
2023/04/03 00:21:49;;;;;;;9.45;5.90;;;;;;;7.12;98.03;99593.83;1716693;83;21535;-68
2023/04/03 00:24:19;;;;;;;9.03;5.25;;;;;;;7.11;98.16;99594.35;1716948;82;21090;-68
2023/04/03 00:26:50;;;;;;;8.35;5.45;;;;;;;7.12;98.28;99594.67;1716872;82;21034;-69
2023/04/03 00:29:20;;;;;;;8.78;5.30;;;;;;;7.12;98.30;99589.74;1716704;82;21037;-68
2023/04/03 00:31:49;;;;;;;9.18;5.47;;;;;;;7.10;98.45;99592.66;1716710;83;20990;-70
2023/04/03 00:34:19;;;;;;;10.70;5.00;;;;;;;7.15;98.75;99590.72;1717144;82;21090;-68
2023/04/03 00:36:51;;;;;;;11.55;5.50;;;;;;;7.16;98.76;99589.19;1722352;83;21031;-69
2023/04/03 00:39:20;;;;;;;8.25;5.37;;;;;;;7.16;98.76;99586.98;1724072;83;21126;-68
2023/04/03 00:41:49;;;;;;;9.35;5.42;;;;;;;7.15;98.71;99587.51;1724208;82;21213;-68
2023/04/03 00:44:35;;;;;;;9.90;5.03;;;;;;;7.11;98.65;99584.81;1724233;83;21083;-67
2023/04/03 00:47:05;;;;;;;9.03;5.28;;;;;;;7.10;98.86;99587.73;1701829;83;21047;-69
2023/04/03 00:49:35;;;;;;;9.38;5.55;;;;;;;7.09;98.91;99583.33;1724248;82;21016;-68
2023/04/03 00:52:06;;;;;;;10.28;5.78;;;;;;;7.07;98.95;99580.80;1724080;83;21035;-69
2023/04/03 00:54:35;;;;;;;7.97;5.20;;;;;;;7.08;99.11;99587.93;1723933;83;21094;-69
2023/04/03 00:57:04;;;;;;;7.92;5.35;;;;;;;7.06;99.11;99584.56;1724287;83;21129;-65
2023/04/03 00:59:36;;;;;;;8.60;5.20;;;;;;;7.04;99.17;99582.55;1707634;82;21444;-68
2023/04/03 01:02:05;;;;;;;8.38;5.60;;;;;;;7.03;99.20;99581.38;1731467;83;21050;-70
2023/04/03 01:04:41;;;;;;;8.13;5.17;;;;;;;7.03;99.24;99581.38;1731248;83;20999;-69
2023/04/03 01:07:18;;;;;;;9.73;5.60;;;;;;;7.02;99.27;99579.17;1731342;83;21015;-67
2023/04/03 01:09:48;;;;;;;11.78;6.08;;;;;;;7.03;99.39;99581.38;1731778;83;21043;-71
2023/04/03 01:12:23;;;;;;;7.65;5.05;;;;;;;7.07;99.62;99582.16;1731307;83;21071;-71
2023/04/03 01:14:54;;;;;;;8.68;5.00;;;;;;;7.06;99.49;99580.48;1731269;82;21063;-69
2023/04/03 01:17:42;;;;;;;9.95;5.47;;;;;;;7.03;99.47;99584.95;1727338;82;21090;-69
2023/04/03 01:20:37;;;;;;;10.32;5.12;;;;;;;7.02;99.54;99583.27;1683178;85;21557;-71
2023/04/03 01:23:35;;;;;;;7.85;5.00;;;;;;;7.07;99.81;99580.80;1683070;85;21452;-69
2023/04/03 01:26:03;;;;;;;8.85;4.95;;;;;;;7.11;99.89;99578.01;1683085;85;21083;-70
2023/04/03 01:28:34;;;;;;;10.32;5.20;;;;;;;7.12;99.75;99574.24;1683274;85;21055;-69
2023/04/03 01:31:26;;;;;;;10.48;4.90;;;;;;;7.10;99.61;99584.50;1683314;85;21063;-70
2023/04/03 01:33:55;;;;;;;7.72;4.83;;;;;;;7.08;99.59;99582.48;1683187;85;21075;-66
2023/04/03 01:36:27;;;;;;;7.47;4.53;;;;;;;7.06;99.67;99576.39;1700830;84;21038;-69
2023/04/03 01:38:58;;;;;;;6.70;4.53;;;;;;;7.05;99.76;99581.52;1713858;82;21056;-71
2023/04/03 01:41:28;;;;;;;9.58;4.92;;;;;;;7.07;99.86;99584.04;1714027;84;21517;-71
2023/04/03 01:43:59;;;;;;;8.88;5.47;;;;;;;7.08;99.86;99586.57;1714084;82;21046;-70
2023/04/03 01:46:29;;;;;;;8.75;4.92;;;;;;;7.07;99.83;99580.80;1713905;84;21101;-68
2023/04/03 01:48:58;;;;;;;8.40;5.05;;;;;;;7.08;100.00;99581.13;1714093;84;21047;-69
2023/04/03 01:51:27;;;;;;;7.50;4.95;;;;;;;7.09;100.00;99581.97;1714341;84;20999;-70
2023/04/03 01:53:56;;;;;;;9.68;5.67;;;;;;;7.10;100.00;99584.50;1713991;84;21458;-69
2023/04/03 01:56:26;;;;;;;8.53;4.95;;;;;;;7.10;100.00;99576.84;1714394;83;21030;-69
2023/04/03 01:58:56;;;;;;;7.87;4.90;;;;;;;7.10;100.00;99575.48;1713962;82;21054;-71
2023/04/03 02:01:25;;;;;;;7.42;4.53;;;;;;;7.09;100.00;99574.64;1713953;82;21022;-69
2023/04/03 02:03:55;;;;;;;6.92;4.28;;;;;;;7.07;100.00;99572.63;1713974;82;21086;-68
2023/04/03 02:06:25;;;;;;;9.68;5.17;;;;;;;7.07;100.00;99573.14;1714269;82;21058;-70
2023/04/03 02:08:55;;;;;;;7.10;4.33;;;;;;;7.08;100.00;99578.40;1714182;83;21066;-69
2023/04/03 02:11:24;;;;;;;7.05;4.60;;;;;;;7.10;100.00;99575.48;1661258;86;21075;-69
2023/04/03 02:13:54;;;;;;;8.05;4.72;;;;;;;7.09;100.00;99578.72;1714039;84;21496;-70
2023/04/03 02:16:23;;;;;;;7.05;4.65;;;;;;;7.11;100.00;99578.01;1714388;83;21046;-69
2023/04/03 02:18:52;;;;;;;8.93;5.10;;;;;;;7.11;100.00;99578.01;1712575;83;20995;-70
2023/04/03 02:21:22;;;;;;;9.48;5.00;;;;;;;7.13;100.00;99580.02;1711623;83;21463;-69
2023/04/03 02:23:51;;;;;;;7.58;4.40;;;;;;;7.12;100.00;99586.50;1711535;83;21027;-68
2023/04/03 02:26:20;;;;;;;6.83;4.42;;;;;;;7.14;100.00;99588.52;1711693;83;21082;-68
2023/04/03 02:28:51;;;;;;;8.43;4.67;;;;;;;7.14;100.00;99587.15;1711718;84;21047;-67
2023/04/03 02:31:20;;;;;;;9.68;4.90;;;;;;;7.13;100.00;99588.19;1711976;83;21015;-69
2023/04/03 02:33:50;;;;;;;8.63;4.80;;;;;;;7.13;100.00;99586.83;1711571;83;21023;-66
2023/04/03 02:36:20;;;;;;;11.30;5.00;;;;;;;7.12;100.00;99587.86;1713044;83;20995;-68
2023/04/03 02:38:51;;;;;;;7.78;4.60;;;;;;;7.10;100.00;99589.94;1713888;83;21011;-67
2023/04/03 02:41:20;;;;;;;7.58;4.83;;;;;;;7.11;100.00;99585.34;1714197;82;21031;-68
2023/04/03 02:43:51;;;;;;;8.48;4.22;;;;;;;7.13;100.00;99588.70;1713633;83;21042;-70
2023/04/03 02:46:19;;;;;;;6.75;4.45;;;;;;;7.14;100.00;99587.15;1714130;84;21158;-68
2023/04/03 02:48:48;;;;;;;8.88;4.83;;;;;;;7.16;100.00;99586.47;1714153;84;21066;-68
2023/04/03 02:51:18;;;;;;;8.85;5.08;;;;;;;7.17;100.00;99590.88;1714265;83;21018;-69
2023/04/03 02:53:47;;;;;;;7.70;4.85;;;;;;;7.18;100.00;99591.72;1713694;84;20991;-69
2023/04/03 02:56:19;;;;;;;6.80;4.20;;;;;;;7.17;100.00;99590.03;1713919;84;21442;-68
2023/04/03 02:58:48;;;;;;;8.70;5.25;;;;;;;7.17;100.00;99585.95;1714053;84;21066;-69
2023/04/03 03:01:17;;;;;;;9.80;5.10;;;;;;;7.16;100.00;99592.44;1713552;82;21051;-68
2023/04/03 03:03:46;;;;;;;9.20;5.10;;;;;;;7.17;100.00;99590.88;1714147;82;21062;-68
2023/04/03 03:06:17;;;;;;;8.60;5.25;;;;;;;7.17;100.00;99588.16;1710930;82;21002;-68
2023/04/03 03:08:46;;;;;;;8.38;4.78;;;;;;;7.17;100.00;99594.97;1714047;84;21522;-67
2023/04/03 03:11:15;;;;;;;9.50;5.33;;;;;;;7.16;100.00;99592.44;1710536;84;21141;-68
2023/04/03 03:13:44;;;;;;;9.55;5.28;;;;;;;7.16;100.00;99595.16;1713850;82;21082;-66
2023/04/03 03:16:14;;;;;;;10.80;5.22;;;;;;;7.17;100.00;99598.20;1714067;82;21519;-68
2023/04/03 03:18:43;;;;;;;9.85;4.97;;;;;;;7.18;100.00;99593.08;1713835;84;21023;-67
2023/04/03 03:21:12;;;;;;;10.30;5.55;;;;;;;7.18;100.00;99595.28;1714218;83;21051;-67
2023/04/03 03:23:41;;;;;;;7.53;4.67;;;;;;;7.19;100.00;99597.49;1714903;83;21027;-66
2023/04/03 03:26:11;;;;;;;10.15;5.20;;;;;;;7.19;100.00;99594.25;1713822;84;21023;-67
2023/04/03 03:28:42;;;;;;;7.85;5.08;;;;;;;7.16;100.00;99597.36;1712480;83;21483;-67
2023/04/03 03:31:13;;;;;;;9.85;5.75;;;;;;;7.14;100.00;99591.23;1711522;84;21072;-66
2023/04/03 03:33:42;;;;;;;9.20;5.30;;;;;;;7.14;100.00;99593.96;1710890;83;21079;-67
2023/04/03 03:36:11;;;;;;;9.28;5.72;;;;;;;7.14;100.00;99595.33;1722649;83;21048;-67
2023/04/03 03:38:40;;;;;;;7.83;5.37;;;;;;;7.13;100.00;99593.63;1733568;82;20992;-68
2023/04/03 03:41:10;;;;;;;8.18;4.92;;;;;;;7.12;100.00;99596.03;1733842;82;21078;-63
2023/04/03 03:43:40;;;;;;;8.93;5.17;;;;;;;7.13;100.00;99596.87;1733827;83;21011;-67
2023/04/03 03:46:09;;;;;;;8.05;5.12;;;;;;;7.12;100.00;99596.03;1733463;82;21071;-69
2023/04/03 03:48:38;;;;;;;8.53;5.75;;;;;;;7.12;100.00;99595.20;1733710;83;21059;-70
2023/04/03 03:51:09;;;;;;;13.62;5.25;;;;;;;7.11;100.00;99589.42;1733378;82;21031;-67
2023/04/03 03:53:39;;;;;;;8.05;5.35;;;;;;;7.11;100.00;99595.71;1733644;83;21464;-69
2023/04/03 03:56:09;;;;;;;9.68;5.58;;;;;;;7.07;100.00;99606.67;1733645;82;21079;-68
2023/04/03 03:58:41;;;;;;;10.20;5.42;;;;;;;7.08;100.00;99597.47;1734211;82;21004;-68
2023/04/03 04:01:11;;;;;;;8.83;5.67;;;;;;;7.10;100.00;99599.99;1733440;81;21602;-68
2023/04/03 04:03:44;;;;;;;9.53;5.42;;;;;;;7.09;100.00;99601.03;1733429;81;21270;-67
2023/04/03 04:06:14;;;;;;;9.58;5.97;;;;;;;7.09;100.00;99593.70;1734034;83;21529;-69
2023/04/03 04:08:46;;;;;;;10.70;5.40;;;;;;;7.13;100.00;99607.78;1733510;82;21035;-69
2023/04/03 04:11:15;;;;;;;10.15;5.28;;;;;;;7.14;100.00;99603.50;1734189;83;21051;-68
2023/04/03 04:13:45;;;;;;;10.65;6.10;;;;;;;7.17;100.00;99607.22;1733462;83;21035;-67
2023/04/03 04:16:15;;;;;;;11.30;5.83;;;;;;;7.18;100.00;99604.82;1733900;83;21479;-68
2023/04/03 04:18:44;;;;;;;9.43;5.42;;;;;;;7.20;100.00;99603.27;1721991;83;21079;-63
2023/04/03 04:21:16;;;;;;;11.63;5.80;;;;;;;7.21;100.00;99611.76;1711630;84;21047;-69
2023/04/03 04:23:46;;;;;;;8.60;5.45;;;;;;;7.21;100.00;99609.03;1711653;84;21043;-68
2023/04/03 04:26:16;;;;;;;11.15;6.10;;;;;;;7.19;100.00;99609.23;1711158;82;21024;-68
2023/04/03 04:28:45;;;;;;;10.10;5.55;;;;;;;7.21;100.00;99615.33;1711608;84;21055;-67
2023/04/03 04:31:14;;;;;;;10.53;5.80;;;;;;;7.23;100.00;99613.25;1711792;84;21051;-67
2023/04/03 04:33:45;;;;;;;9.75;5.62;;;;;;;7.25;100.00;99614.42;1711400;84;21066;-69
2023/04/03 04:36:14;;;;;;;9.35;5.55;;;;;;;7.23;100.00;99611.89;1711250;84;21432;-69
2023/04/03 04:38:46;;;;;;;12.00;5.65;;;;;;;7.23;100.00;99618.70;1711412;83;21051;-71
2023/04/03 04:41:22;;;;;;;10.70;6.40;;;;;;;7.25;100.00;99612.54;1711378;84;21071;-72
2023/04/03 04:43:51;;;;;;;12.20;5.95;;;;;;;7.27;100.00;99617.27;1711307;84;21058;-68
2023/04/03 04:46:20;;;;;;;9.70;6.10;;;;;;;7.27;100.00;99616.43;1691500;84;21030;-68
2023/04/03 04:48:51;;;;;;;11.08;6.53;;;;;;;7.25;100.00;99612.54;1711838;83;21038;-70
2023/04/03 04:51:23;;;;;;;8.15;5.67;;;;;;;7.23;100.00;99613.25;1711508;84;21011;-70
2023/04/03 04:53:53;;;;;;;12.85;6.33;;;;;;;7.24;100.00;99613.58;1711307;84;21027;-69
2023/04/03 04:56:26;;;;;;;11.43;5.92;;;;;;;7.25;100.00;99614.42;1711664;84;21538;-71
2023/04/03 04:58:56;;;;;;;9.93;6.00;;;;;;;7.25;100.00;99610.33;1711494;84;21458;-69
2023/04/03 05:01:26;;;;;;;14.25;6.60;;;;;;;7.26;100.00;99616.10;1711336;84;21047;-70
2023/04/03 05:03:57;;;;;;;10.00;5.70;;;;;;;7.29;100.00;99621.16;1648083;87;21522;-69
2023/04/03 05:06:26;;;;;;;8.68;5.78;;;;;;;7.29;100.00;99621.16;1711432;82;21063;-68
2023/04/03 05:08:57;;;;;;;9.63;6.03;;;;;;;7.29;100.00;99622.00;1691634;84;21050;-69
2023/04/03 05:11:28;;;;;;;11.63;5.67;;;;;;;7.29;100.00;99622.00;1711484;83;21502;-70
2023/04/03 05:13:58;;;;;;;10.25;5.78;;;;;;;7.32;100.00;99626.22;1711072;84;21522;-68
2023/04/03 05:16:29;;;;;;;11.97;6.78;;;;;;;7.37;100.00;99631.08;1711371;83;21051;-67
2023/04/03 05:19:00;;;;;;;9.95;6.25;;;;;;;7.38;100.00;99625.44;1711251;83;21427;-68
2023/04/03 05:21:31;;;;;;;11.70;5.90;;;;;;;7.42;100.00;99628.61;1691574;84;21058;-69
2023/04/03 05:24:02;;;;;;;10.18;5.70;;;;;;;7.41;100.00;99626.41;1711218;83;21760;-67
2023/04/03 05:26:33;;;;;;;8.40;5.30;;;;;;;7.42;100.00;99628.61;1711651;84;21058;-68
2023/04/03 05:29:03;;;;;;;10.75;6.08;;;;;;;7.44;100.00;99627.37;1711413;84;21051;-68
2023/04/03 05:31:33;;;;;;;8.90;5.58;;;;;;;7.47;100.00;99630.23;1711128;83;21110;-67
2023/04/03 05:34:02;;;;;;;9.33;6.05;;;;;;;7.46;100.00;99628.55;1711549;82;21019;-66
2023/04/03 05:36:33;;;;;;;9.80;6.20;;;;;;;7.46;100.00;99640.80;1712788;84;21038;-69
2023/04/03 05:39:03;;;;;;;9.63;6.20;;;;;;;7.44;100.00;99636.91;1714056;83;21054;-67
2023/04/03 05:41:36;;;;;;;11.15;6.42;;;;;;;7.43;100.00;99640.67;1713685;84;21308;-68
2023/04/03 05:44:05;;;;;;;10.15;6.03;;;;;;;7.46;100.00;99643.02;1713864;84;21038;-68
2023/04/03 05:46:35;;;;;;;9.68;6.33;;;;;;;7.49;100.00;99643.14;1714003;84;21450;-68
2023/04/03 05:49:07;;;;;;;10.30;5.92;;;;;;;7.50;100.00;99638.86;1714355;82;21038;-69
2023/04/03 05:51:37;;;;;;;10.00;5.80;;;;;;;7.55;100.00;99645.08;1713960;83;21420;-69
2023/04/03 05:54:26;;;;;;;11.53;6.47;;;;;;;7.57;100.00;99648.45;1713750;82;21023;-69
2023/04/03 05:56:58;;;;;;;11.40;6.40;;;;;;;7.60;100.00;99645.33;1714038;82;21446;-68
2023/04/03 05:59:28;;;;;;;10.55;5.97;;;;;;;7.63;100.00;99644.41;1714134;82;21016;-67
2023/04/03 06:02:00;;;;;;;11.65;6.17;;;;;;;7.65;100.00;99649.67;1713699;83;21420;-68
2023/04/03 06:04:29;;;;;;;11.28;6.47;;;;;;;7.64;100.00;99646.10;1714004;82;21117;-70
2023/04/03 06:06:58;;;;;;;9.43;6.10;;;;;;;7.65;100.00;99652.40;1713855;83;21093;-70
2023/04/03 06:09:29;;;;;;;12.47;6.28;;;;;;;7.68;100.00;99655.25;1681453;85;21082;-68
2023/04/03 06:11:59;;;;;;;10.55;6.65;;;;;;;7.68;100.00;99653.88;1648087;87;21172;-68
2023/04/03 06:14:29;;;;;;;10.45;6.05;;;;;;;7.71;100.00;99658.42;1681318;85;21075;-70
2023/04/03 06:16:59;;;;;;;10.48;6.03;;;;;;;7.75;100.00;99660.23;1681385;84;21545;-66
2023/04/03 06:19:29;;;;;;;11.05;6.35;;;;;;;7.76;100.00;99661.92;1680413;85;21113;-69
2023/04/03 06:21:59;;;;;;;16.12;6.37;;;;;;;7.75;100.00;99663.80;1678959;84;22230;-70
2023/04/03 06:24:30;;;;;;;9.33;6.25;;;;;;;7.75;100.00;99670.63;1679119;85;21098;-67
2023/04/03 06:26:59;;;;;;;10.53;6.55;;;;;;;7.77;100.00;99673.99;1680095;85;21046;-70
2023/04/03 06:29:28;;;;;;;14.15;6.45;;;;;;;7.79;100.00;99670.55;1683182;85;21031;-69
2023/04/03 06:31:58;;;;;;;12.13;6.80;;;;;;;7.82;100.00;99677.00;1682539;85;21549;-69
2023/04/03 06:34:27;;;;;;;13.20;7.22;;;;;;;7.86;100.00;99672.00;1682532;85;21034;-69
2023/04/03 06:36:57;;;;;;;11.28;7.55;;;;;;;7.88;100.00;99676.21;1723737;83;21104;-69
2023/04/03 06:39:28;;;;;;;15.20;8.95;;;;;;;7.93;100.00;99674.25;1733866;83;21071;-69
2023/04/03 06:41:58;;;;;;;15.03;9.90;;;;;;;7.93;100.00;99676.46;1733651;83;22075;-68
2023/04/03 06:44:29;;;;;;;15.23;9.78;;;;;;;7.99;100.00;99674.82;1733696;82;21111;-70
2023/04/03 06:46:59;;;;;;;16.35;9.68;;;;;;;8.01;100.00;99680.92;1734323;83;21055;-70
2023/04/03 06:49:28;;;;;;;13.08;9.15;;;;;;;8.03;100.00;99686.17;1733866;82;21103;-69
2023/04/03 06:51:58;;;;;;;13.83;8.50;;;;;;;8.06;100.00;99685.26;1733567;82;21079;-68
2023/04/03 06:54:30;;;;;;;14.38;8.98;;;;;;;8.07;100.00;99680.64;1734314;83;21416;-68
2023/04/03 06:57:01;;;;;;;14.33;9.30;;;;;;;8.07;100.00;99684.73;1736189;83;21055;-67
2023/04/03 06:59:31;;;;;;;13.78;8.68;;;;;;;8.06;100.00;99684.41;1737059;83;21063;-70
2023/04/03 07:02:00;;;;;;;11.25;7.87;;;;;;;8.08;100.00;99695.45;1737249;82;21064;-69
2023/04/03 07:04:30;;;;;;;13.30;8.50;;;;;;;8.09;100.00;99694.41;1741314;82;21027;-71
2023/04/03 07:07:00;;;;;;;11.40;7.53;;;;;;;8.12;100.00;99699.47;1740209;82;21047;-70
2023/04/03 07:09:29;;;;;;;12.35;7.87;;;;;;;8.14;100.00;99693.81;1739119;82;21059;-69
2023/04/03 07:11:59;;;;;;;12.15;7.75;;;;;;;8.17;100.00;99701.60;1739113;82;21897;-70
2023/04/03 07:14:29;;;;;;;12.93;7.65;;;;;;;8.17;100.00;99692.05;1739224;82;21031;-69
2023/04/03 07:16:58;;;;;;;11.10;7.30;;;;;;;8.19;100.00;99706.34;1738877;82;21715;-69
2023/04/03 07:19:29;;;;;;;11.18;6.85;;;;;;;8.18;100.00;99700.56;1728107;82;21015;-70
2023/04/03 07:21:58;;;;;;;12.15;6.90;;;;;;;8.16;100.00;99708.09;1716580;83;21121;-70
2023/04/03 07:24:29;;;;;;;15.45;7.75;;;;;;;8.19;100.00;99700.88;1717099;83;21019;-71
2023/04/03 07:26:58;;;;;;;12.93;7.28;;;;;;;8.23;100.00;99707.10;1716736;83;21095;-70
2023/04/03 07:29:27;;;;;;;12.58;7.28;;;;;;;8.24;100.00;99704.69;1716813;83;21007;-71
2023/04/03 07:31:56;;;;;;;10.43;7.33;;;;;;;8.27;100.00;99706.18;1716640;83;21054;-70
2023/04/03 07:34:25;;;;;;;11.97;7.20;;;;;;;8.27;100.00;99700.72;1716536;83;21066;-69
2023/04/03 07:36:55;;;;;;;13.00;6.60;;;;;;;8.29;100.00;99708.19;1718336;82;21047;-71
2023/04/03 07:39:24;;;;;;;11.43;6.67;;;;;;;8.29;99.92;99705.46;1719227;82;21117;-71
2023/04/03 07:41:55;;;;;;;12.25;7.35;;;;;;;8.28;99.88;99709.23;1718913;83;21062;-70
2023/04/03 07:44:24;;;;;;;11.03;6.97;;;;;;;8.29;99.88;99709.55;1718583;83;21086;-71
2023/04/03 07:46:55;;;;;;;10.35;7.03;;;;;;;8.31;100.00;99707.98;1718973;82;21679;-70
2023/04/03 07:49:25;;;;;;;12.15;7.22;;;;;;;8.33;100.00;99707.27;1719114;83;21077;-70
2023/04/03 07:51:55;;;;;;;11.15;7.33;;;;;;;8.36;100.00;99704.17;1718739;82;21086;-70
2023/04/03 07:54:25;;;;;;;10.80;7.00;;;;;;;8.40;100.00;99712.28;1718856;83;21086;-69
2023/04/03 07:56:54;;;;;;;9.08;6.05;;;;;;;8.41;100.00;99713.44;1719191;82;21467;-65
2023/04/03 07:59:25;;;;;;;9.63;6.47;;;;;;;8.44;99.96;99718.50;1718961;82;21510;-68
2023/04/03 08:01:54;;;;;;;9.63;6.15;;;;;;;8.42;99.67;99711.55;1718662;83;21696;-69
2023/04/03 08:04:23;;;;;;;12.55;7.10;;;;;;;8.42;99.71;99717.02;1720380;83;21022;-68
2023/04/03 08:06:52;;;;;;;10.03;6.35;;;;;;;8.43;99.72;99711.87;1721607;83;21046;-70
2023/04/03 08:09:22;;;;;;;9.23;6.28;;;;;;;8.45;99.80;99718.85;1721466;82;21050;-71
2023/04/03 08:11:53;;;;;;;11.55;6.45;;;;;;;8.49;99.76;99718.77;1721223;82;21423;-71
2023/04/03 08:14:22;;;;;;;9.15;5.90;;;;;;;8.52;99.61;99722.98;1721504;83;21066;-69
2023/04/03 08:16:55;;;;;;;13.20;7.03;;;;;;;8.54;99.53;99728.56;1721193;82;21010;-68
2023/04/03 08:19:24;;;;;;;9.98;6.40;;;;;;;8.56;99.37;99721.54;1716814;83;21094;-68
2023/04/03 08:21:55;;;;;;;10.32;6.25;;;;;;;8.60;99.43;99726.92;1723614;82;21051;-69
2023/04/03 08:24:25;;;;;;;11.45;5.95;;;;;;;8.66;99.63;99719.81;1719894;82;21506;-69
2023/04/03 08:26:54;;;;;;;10.70;6.33;;;;;;;8.71;99.67;99724.14;1716773;83;21494;-71
2023/04/03 08:29:23;;;;;;;12.75;7.58;;;;;;;8.74;99.46;99723.73;1716656;83;21054;-71
2023/04/03 08:31:52;;;;;;;10.55;6.40;;;;;;;8.78;99.32;99729.95;1716484;82;21026;-70
2023/04/03 08:34:22;;;;;;;12.00;5.85;;;;;;;8.82;99.21;99738.59;1716649;83;21481;-72
2023/04/03 08:36:51;;;;;;;9.40;6.40;;;;;;;8.83;98.98;99734.81;1721876;83;21091;-71
2023/04/03 08:39:20;;;;;;;10.53;6.12;;;;;;;8.85;98.71;99732.20;1723877;83;21047;-69
2023/04/03 08:41:49;;;;;;;10.15;6.47;;;;;;;8.86;98.62;99732.52;1723575;82;21066;-71
2023/04/03 08:44:50;;;;;;;10.75;7.20;;;;;;;8.90;98.58;99731.59;1723931;83;21106;-71
2023/04/03 08:47:47;;;;;;;11.22;7.40;;;;;;;8.93;98.39;99735.28;1723857;82;21063;-69
2023/04/03 08:50:20;;;;;;;9.03;6.97;;;;;;;8.95;98.12;99734.55;1723633;82;21471;-71
2023/04/03 08:52:57;;;;;;;10.90;7.33;;;;;;;8.97;97.83;99741.18;1724106;83;21055;-70
2023/04/03 08:55:40;;;;;;;11.50;6.92;;;;;;;8.97;97.43;99737.92;1724299;83;21019;-70
2023/04/03 08:58:16;;;;;;;9.40;6.08;;;;;;;8.98;97.09;99745.07;1723877;82;21071;-69
2023/04/03 09:00:56;;;;;;;8.10;4.87;;;;;;;9.01;96.70;99742.45;1724321;83;21447;-71
2023/04/03 09:03:29;;;;;;;11.33;5.65;;;;;;;9.02;96.38;99740.88;1724217;82;21058;-68
2023/04/03 09:06:22;;;;;;;9.70;5.53;;;;;;;9.07;96.15;99741.12;1731086;82;21452;-72
2023/04/03 09:09:16;;;;;;;9.70;6.10;;;;;;;9.13;95.96;99747.69;1731008;82;21043;-71
2023/04/03 09:12:19;;;;;;;8.60;5.35;;;;;;;9.14;95.63;99747.48;1730942;83;21047;-71
2023/04/03 09:15:20;;;;;;;8.85;5.22;;;;;;;9.16;95.28;99755.48;1731165;83;21056;-68
2023/04/03 09:18:29;;;;;;;8.65;5.30;;;;;;;9.18;94.49;99751.49;1729349;82;21023;-73
2023/04/03 09:21:25;;;;;;;9.85;5.72;;;;;;;9.23;94.43;99745.41;1713160;83;21553;-71
2023/04/03 09:23:59;;;;;;;8.13;5.33;;;;;;;9.28;93.94;99739.33;1724137;82;21039;-69
2023/04/03 09:26:50;;;;;;;9.08;5.35;;;;;;;9.30;93.47;99742.70;1711489;83;21412;-67
2023/04/03 09:29:21;;;;;;;7.12;5.37;;;;;;;9.36;93.30;99747.34;1711440;82;21051;-73
2023/04/03 09:32:01;;;;;;;10.80;5.22;;;;;;;9.44;93.40;99756.72;1711001;83;21412;-72
2023/04/03 09:34:36;;;;;;;9.23;5.22;;;;;;;9.49;92.59;99752.32;1711461;84;21003;-68
2023/04/03 09:37:08;;;;;;;9.40;5.95;;;;;;;9.52;92.30;99747.80;1712896;84;21094;-72
2023/04/03 09:39:53;;;;;;;8.98;5.70;;;;;;;9.56;92.02;99756.44;1713300;83;20999;-71
2023/04/03 09:42:24;;;;;;;11.18;6.67;;;;;;;9.62;92.00;99752.88;1713589;83;21110;-69
2023/04/03 09:44:58;;;;;;;8.28;5.35;;;;;;;9.66;91.38;99763.72;1713829;84;21050;-70
2023/04/03 09:47:33;;;;;;;10.43;5.85;;;;;;;9.67;90.23;99763.19;1709003;84;20998;-71
2023/04/03 09:50:19;;;;;;;9.60;5.80;;;;;;;9.65;90.01;99762.03;1713447;84;21065;-71
2023/04/03 09:52:51;;;;;;;7.83;5.40;;;;;;;9.65;90.17;99760.66;1708889;82;21070;-71
2023/04/03 09:55:27;;;;;;;8.95;5.35;;;;;;;9.68;90.23;99762.14;1713982;82;21478;-72
2023/04/03 09:58:26;;;;;;;10.43;6.25;;;;;;;9.67;90.07;99761.30;1620364;88;21082;-71
2023/04/03 10:01:00;;;;;;;10.35;6.35;;;;;;;9.68;90.09;99759.41;1585381;89;21152;-72
2023/04/03 10:03:36;;;;;;;8.10;5.60;;;;;;;9.69;89.95;99767.41;1585827;89;21129;-71
2023/04/03 10:06:14;;;;;;;9.60;5.83;;;;;;;9.67;89.82;99768.14;1566538;90;21153;-75
2023/04/03 10:08:43;;;;;;;;;;;;;;;9.69;89.78;99765.19;1582884;90;21131;-74
2023/04/03 10:11:19;;;;;;;9.25;5.58;;;;;;;9.70;89.67;99769.62;1577857;90;20275;-72
2023/04/03 10:13:53;;;;;;;9.48;5.53;;;;;;;9.71;89.79;99769.41;1586158;90;21096;-67
2023/04/03 10:16:31;;;;;;;11.00;6.78;;;;;;;9.77;89.83;99770.50;1612578;88;21235;-71
2023/04/03 10:19:28;;;;;;;;;;;;;;;9.80;89.92;99775.03;1631745;86;21095;-71
2023/04/03 10:22:26;;;;;;;9.25;5.83;;;;;;;9.86;90.08;99770.63;1628941;88;20163;-70
2023/04/03 10:25:38;;;;;;;7.83;5.60;;;;;;;9.88;89.79;99782.20;1627221;88;21068;-69
2023/04/03 10:28:24;;;;;;;11.90;6.03;;;;;;;9.89;89.45;99784.41;1627614;87;21852;-71
2023/04/03 10:31:06;;;;;;;9.83;5.70;;;;;;;9.84;89.11;99785.03;1632640;85;21476;-67
2023/04/03 10:34:25;;;;;;;8.93;5.80;;;;;;;9.81;88.95;99781.34;1686131;85;21487;-66
2023/04/03 10:37:23;;;;;;;12.40;6.33;;;;;;;9.78;88.71;99788.08;1658095;86;21098;-67
2023/04/03 10:40:32;;;;;;;8.90;5.17;;;;;;;9.78;88.79;99785.87;1664662;86;21095;-67
2023/04/03 10:43:23;;;;;;;13.15;6.60;;;;;;;9.75;89.02;99797.19;1739013;82;21063;-66
2023/04/03 10:46:15;;;;;;;8.28;5.12;;;;;;;9.74;89.12;99798.23;1738919;82;21054;-67
2023/04/03 10:49:16;;;;;;;8.00;5.10;;;;;;;9.72;89.08;99796.23;1739389;82;21103;-66
2023/04/03 10:52:19;;;;;;;10.90;5.12;;;;;;;9.71;89.13;99804.13;1739374;82;21095;-67
2023/04/03 10:55:15;;;;;;;7.28;4.50;;;;;;;9.66;89.22;99801.17;1738743;82;21460;-66
2023/04/03 10:57:44;;;;;;;8.30;5.65;;;;;;;9.64;89.42;99803.27;1738911;82;21493;-65
2023/04/03 11:00:22;;;;;;;10.63;5.87;;;;;;;9.60;89.49;99804.73;1739010;82;21500;-66
2023/04/03 11:03:03;;;;;;;8.73;5.05;;;;;;;9.59;89.54;99807.98;1677774;85;21160;-67
2023/04/03 11:05:38;;;;;;;9.08;5.17;;;;;;;9.56;89.38;99807.03;1679627;84;21090;-66
2023/04/03 11:08:30;;;;;;;9.45;5.58;;;;;;;9.54;89.58;99812.70;1680545;85;21233;-65
2023/04/03 11:11:03;;;;;;;12.20;5.92;;;;;;;9.53;89.42;99804.71;1680283;85;21106;-66
2023/04/03 11:13:54;;;;;;;9.23;6.03;;;;;;;9.51;89.57;99805.44;1680229;85;21099;-69
2023/04/03 11:16:27;;;;;;;10.25;6.25;;;;;;;9.50;89.64;99803.75;1680639;85;21142;-65
2023/04/03 11:19:09;;;;;;;11.20;6.17;;;;;;;9.47;89.75;99806.38;1680604;85;21509;-72
2023/04/03 11:21:46;;;;;;;10.03;6.00;;;;;;;9.45;90.00;99809.84;1679936;85;21122;-66
2023/04/03 11:24:26;;;;;;;7.25;4.50;;;;;;;9.43;90.21;99815.19;1667894;85;21478;-64
2023/04/03 11:26:56;;;;;;;12.53;6.03;;;;;;;9.38;90.38;99812.23;1662515;85;21018;-66
2023/04/03 11:29:36;;;;;;;9.23;5.95;;;;;;;9.35;90.59;99815.38;1688427;85;21033;-66
2023/04/03 11:32:41;;;;;;;11.15;6.10;;;;;;;9.30;90.73;99805.58;1687953;84;21547;-66
2023/04/03 11:35:10;;;;;;;8.73;5.83;;;;;;;9.28;90.98;99814.50;1689740;83;21097;-65
2023/04/03 11:37:44;;;;;;;10.10;5.42;;;;;;;9.27;91.28;99812.81;1723394;82;21117;-65
2023/04/03 11:40:23;;;;;;;7.12;4.87;;;;;;;9.27;91.18;99821.86;1723270;82;21129;-68
2023/04/03 11:43:29;;;;;;;6.45;4.45;;;;;;;9.21;90.69;99825.41;1723245;82;21531;-66
2023/04/03 11:46:02;;;;;;;6.05;4.60;;;;;;;9.14;90.65;99825.37;1723511;83;21463;-68
2023/04/03 11:48:42;;;;;;;7.35;3.98;;;;;;;9.07;90.58;99826.35;1723402;82;21489;-69
2023/04/03 11:51:21;;;;;;;7.60;4.40;;;;;;;9.05;90.72;99825.19;1721007;82;21078;-69
2023/04/03 11:53:50;;;;;;;8.30;3.90;;;;;;;9.02;90.85;99831.58;1713156;83;21059;-69
2023/04/03 11:56:30;;;;;;;6.45;4.00;;;;;;;8.99;90.94;99836.08;1714721;82;21077;-69
2023/04/03 11:59:15;;;;;;;6.15;3.77;;;;;;;8.97;90.98;99836.80;1716532;83;21114;-70
2023/04/03 12:01:51;;;;;;;5.33;3.80;;;;;;;8.89;90.84;99837.81;1722956;82;21090;-68
2023/04/03 12:04:23;;;;;;;5.62;3.60;;;;;;;8.81;90.90;99844.80;1724028;82;21497;-68
2023/04/03 12:07:00;;;;;;;8.23;3.72;;;;;;;8.78;91.13;99846.04;1678901;85;21096;-69